CheckWX is a tool to help pilots better visualize weather data.  It is not intended as a substitute for an official pre-flight weather briefing.

04:52:12 UTC

UUBC TAF
Grabtsevo Airport
Kaluga, Russian Federation
TAF UUBC 180153Z 1803/1812 VRB01MPS 9999 SCT040 TEMPO 1803/1806 1500 BR FEW006 SCT030CB

Jun-18@
03:00 UTC

Jun-18 @ 03:00 UTC

Jun-18@
12:00 UTC

Jun-18 @ 12:00 UTC

TAF UUBC 180153Z 1803/1812 VRB01MPS 9999 SCT040
Wind
  • Variable at 2 KTS
Cloud Levels
  • Scattered at 4,000' AGL

Jun-18@
03:00 UTC

Jun-18 @ 03:00 UTC

Jun-18@
06:00 UTC

Jun-18 @ 06:00 UTC

TEMPO 1803/1806 1500 BR FEW006 SCT030CB

Temporary

Temporary Changes expected for less than half the time period

Conditions
Mist
Cloud Levels
  • Few at 600' AGL
  • Scattered at 3,000' AGL